createdAt,value
2018-06-12T00:00:50.581Z,23.73
2018-06-12T00:03:19.830Z,26.93
2018-06-12T00:05:49.144Z,23.77
2018-06-12T00:08:18.424Z,25.37
2018-06-12T00:10:47.654Z,23.47
2018-06-12T00:13:16.884Z,23.50
2018-06-12T00:15:46.084Z,24.70
2018-06-12T00:18:15.340Z,23.60
2018-06-12T00:20:44.564Z,25.37
2018-06-12T00:23:13.784Z,26.17
2018-06-12T00:25:43.039Z,27.80
2018-06-12T00:28:12.290Z,28.83
2018-06-12T00:30:41.616Z,26.73
2018-06-12T00:33:10.883Z,32.17
2018-06-12T00:35:40.112Z,28.93
2018-06-12T00:38:09.323Z,29.10
2018-06-12T00:40:38.647Z,27.67
2018-06-12T00:43:07.926Z,30.70
2018-06-12T00:45:37.151Z,31.07
2018-06-12T00:48:06.379Z,27.77
2018-06-12T00:50:35.591Z,26.50
2018-06-12T00:53:04.853Z,23.80
2018-06-12T00:55:34.055Z,22.83
2018-06-12T00:58:03.278Z,21.70
2018-06-12T01:00:32.548Z,22.63
2018-06-12T01:03:01.796Z,23.60
2018-06-12T01:05:31.031Z,27.77
2018-06-12T01:08:00.264Z,27.20
2018-06-12T01:10:29.504Z,25.33
2018-06-12T01:12:58.740Z,25.97
2018-06-12T01:15:28.012Z,26.97
2018-06-12T01:17:57.302Z,27.40
2018-06-12T01:20:26.559Z,27.20
2018-06-12T01:22:55.800Z,32.23
2018-06-12T01:25:25.028Z,27.00
2018-06-12T01:27:54.250Z,29.13
2018-06-12T01:30:23.504Z,28.30
2018-06-12T01:32:52.859Z,30.50
2018-06-12T01:35:21.786Z,30.30
2018-06-12T01:37:50.887Z,27.10
2018-06-12T01:40:20.142Z,30.27
2018-06-12T01:42:49.056Z,26.73
2018-06-12T01:45:17.894Z,26.40
2018-06-12T01:47:46.987Z,24.50
2018-06-12T01:50:16.254Z,22.57
2018-06-12T01:52:46.174Z,22.93
2018-06-12T01:55:15.371Z,21.80
2018-06-12T01:57:44.579Z,23.97
2018-06-12T02:00:13.776Z,28.07
2018-06-12T02:02:42.998Z,24.97
2018-06-12T02:05:12.268Z,24.00
2018-06-12T02:07:41.479Z,24.50
2018-06-12T02:10:10.707Z,25.00
2018-06-12T02:12:39.590Z,24.50
2018-06-12T02:15:08.690Z,22.47
2018-06-12T02:17:37.936Z,29.47
2018-06-12T02:20:07.238Z,20.93
2018-06-12T02:22:36.588Z,22.07
2018-06-12T02:25:06.270Z,21.27
2018-06-12T02:27:35.492Z,23.10
2018-06-12T02:30:04.919Z,23.03
2018-06-12T02:32:34.165Z,24.70
2018-06-12T02:35:03.370Z,24.27
2018-06-12T02:37:32.664Z,24.10
2018-06-12T02:40:01.978Z,23.53
2018-06-12T02:42:31.302Z,24.00
2018-06-12T02:45:00.548Z,23.50
2018-06-12T02:47:29.756Z,24.97
2018-06-12T02:49:59.046Z,23.73
2018-06-12T02:52:28.290Z,25.50
2018-06-12T02:54:57.548Z,25.30
2018-06-12T02:57:26.750Z,23.87
2018-06-12T02:59:56.021Z,23.13
2018-06-12T03:02:25.277Z,21.93
2018-06-12T03:04:54.507Z,23.73
2018-06-12T03:07:23.766Z,23.77
2018-06-12T03:09:52.680Z,23.80
2018-06-12T03:12:21.791Z,24.20
2018-06-12T03:14:51.022Z,22.63
2018-06-12T03:17:20.321Z,23.23
2018-06-12T03:19:49.563Z,20.73
2018-06-12T03:22:18.768Z,23.80
2018-06-12T03:24:48.077Z,23.40
2018-06-12T03:27:17.348Z,21.57
2018-06-12T03:29:46.602Z,22.97
2018-06-12T03:32:15.817Z,23.20
2018-06-12T03:34:45.061Z,21.93
2018-06-12T03:37:14.254Z,23.53
2018-06-12T03:39:43.485Z,19.73
2018-06-12T03:42:12.763Z,21.17
2018-06-12T03:44:42.011Z,21.87
2018-06-12T03:47:11.267Z,21.73
2018-06-12T03:49:40.452Z,21.47
2018-06-12T03:52:12.701Z,21.33
2018-06-12T03:54:41.959Z,20.97
2018-06-12T03:57:11.203Z,23.23
2018-06-12T03:59:40.085Z,21.40
2018-06-12T04:02:09.183Z,20.83
2018-06-12T04:04:38.413Z,19.77
2018-06-12T04:07:07.722Z,20.70
2018-06-12T04:09:37.000Z,24.27
2018-06-12T04:12:06.299Z,21.90
2018-06-12T04:14:35.594Z,22.43
2018-06-12T04:17:04.852Z,20.40
2018-06-12T04:19:34.095Z,20.30
2018-06-12T04:22:03.375Z,20.27
2018-06-12T04:24:32.673Z,22.67
2018-06-12T04:27:01.911Z,21.03
2018-06-12T04:29:31.137Z,21.07
2018-06-12T04:32:00.345Z,21.93
2018-06-12T04:34:29.562Z,23.40
2018-06-12T04:36:58.774Z,23.10
2018-06-12T04:39:28.078Z,25.03
2018-06-12T04:41:57.351Z,23.93
2018-06-12T04:44:26.601Z,24.27
2018-06-12T04:46:55.855Z,24.93
2018-06-12T04:49:25.093Z,23.77
2018-06-12T04:51:54.358Z,25.07
2018-06-12T04:54:23.634Z,25.70
2018-06-12T04:56:52.963Z,23.97
2018-06-12T04:59:22.198Z,25.40
2018-06-12T05:01:58.132Z,30.67
2018-06-12T05:04:27.412Z,24.47
2018-06-12T05:06:56.626Z,25.03
2018-06-12T05:09:25.881Z,26.93
2018-06-12T05:11:55.107Z,27.37
2018-06-12T05:14:24.421Z,28.20
2018-06-12T05:16:53.625Z,23.60
2018-06-12T05:19:22.919Z,25.30
2018-06-12T05:21:52.203Z,26.17
2018-06-12T05:24:21.472Z,24.00
2018-06-12T05:26:50.690Z,23.93
2018-06-12T05:29:19.958Z,21.43
2018-06-12T05:31:49.228Z,25.60
2018-06-12T05:34:18.540Z,22.77
2018-06-12T05:36:47.816Z,23.77
2018-06-12T05:39:17.023Z,22.83
2018-06-12T05:41:46.297Z,22.80
2018-06-12T05:44:15.515Z,22.00
2018-06-12T05:46:44.854Z,24.03
2018-06-12T05:49:14.022Z,22.63
2018-06-12T05:51:43.278Z,22.70
2018-06-12T05:54:12.589Z,23.97
2018-06-12T05:56:41.902Z,23.07
2018-06-12T05:59:11.144Z,23.40
2018-06-12T06:01:40.410Z,23.00
2018-06-12T06:04:09.666Z,23.73
2018-06-12T06:06:39.515Z,23.10
2018-06-12T06:09:09.079Z,23.03
2018-06-12T06:11:38.321Z,21.17
2018-06-12T06:14:07.557Z,24.07
2018-06-12T06:16:36.823Z,23.10
2018-06-12T06:19:06.068Z,23.17
2018-06-12T06:21:35.320Z,23.67
2018-06-12T06:24:04.617Z,21.37
2018-06-12T06:26:33.891Z,20.23
2018-06-12T06:29:03.194Z,21.90
2018-06-12T06:31:46.879Z,22.67
2018-06-12T06:34:22.689Z,23.03
2018-06-12T06:36:51.894Z,20.83
2018-06-12T06:39:21.243Z,20.97
2018-06-12T06:41:50.499Z,22.07
2018-06-12T06:44:19.714Z,20.83
2018-06-12T06:46:48.977Z,21.80
2018-06-12T06:49:18.207Z,22.73
2018-06-12T06:51:47.461Z,22.53
2018-06-12T06:54:16.696Z,21.50
2018-06-12T06:56:45.892Z,21.27
2018-06-12T06:59:15.082Z,21.93
2018-06-12T07:01:44.331Z,21.07
2018-06-12T07:04:13.555Z,21.50
2018-06-12T07:06:42.821Z,20.70
2018-06-12T07:09:12.088Z,21.70
2018-06-12T07:11:41.379Z,20.03
2018-06-12T07:14:10.670Z,19.10
2018-06-12T07:16:39.944Z,18.63
2018-06-12T07:19:09.155Z,19.63
2018-06-12T07:21:38.409Z,19.90
2018-06-12T07:24:07.643Z,19.13
2018-06-12T07:26:36.871Z,18.33
2018-06-12T07:29:06.183Z,18.87
2018-06-12T07:31:35.419Z,17.83
2018-06-12T07:34:04.732Z,18.47
2018-06-12T07:36:34.095Z,19.03
2018-06-12T07:39:03.943Z,18.30
2018-06-12T07:41:33.173Z,18.47
2018-06-12T07:44:02.437Z,18.53
2018-06-12T07:46:31.342Z,19.10
2018-06-12T07:49:00.465Z,19.37
2018-06-12T07:51:29.687Z,19.53
2018-06-12T07:53:58.926Z,18.47
2018-06-12T07:56:28.170Z,18.67
2018-06-12T07:58:57.395Z,18.57
2018-06-12T08:01:26.622Z,18.97
2018-06-12T08:03:55.942Z,18.90
2018-06-12T08:06:25.183Z,18.83
2018-06-12T08:08:54.453Z,18.47
2018-06-12T08:11:23.689Z,17.77
2018-06-12T08:13:52.931Z,17.27
2018-06-12T08:16:22.184Z,16.40
2018-06-12T08:18:51.423Z,17.33
2018-06-12T08:21:20.672Z,16.93
2018-06-12T08:23:49.993Z,16.50
2018-06-12T08:26:19.229Z,17.47
2018-06-12T08:28:48.476Z,17.70
2018-06-12T08:31:17.710Z,16.10
2018-06-12T08:33:46.944Z,16.23
2018-06-12T08:36:16.189Z,16.67
2018-06-12T08:38:45.478Z,16.10
2018-06-12T08:41:14.747Z,16.00
2018-06-12T08:43:44.077Z,15.27
2018-06-12T08:46:13.336Z,14.37
2018-06-12T08:48:42.589Z,16.00
2018-06-12T08:51:11.870Z,13.07
2018-06-12T08:53:40.740Z,14.17
2018-06-12T08:56:09.879Z,13.40
2018-06-12T08:58:39.122Z,14.63
2018-06-12T09:01:09.190Z,14.47
2018-06-12T09:03:38.512Z,13.77
2018-06-12T09:06:07.739Z,14.70
2018-06-12T09:08:36.958Z,15.50
2018-06-12T09:11:05.886Z,15.23
2018-06-12T09:13:34.994Z,11.97
2018-06-12T09:16:04.255Z,12.37
2018-06-12T09:18:33.522Z,12.73
2018-06-12T09:21:02.796Z,12.20
2018-06-12T09:23:32.045Z,12.33
2018-06-12T09:26:01.358Z,12.67
2018-06-12T09:28:30.675Z,11.90
2018-06-12T09:30:59.869Z,10.37
2018-06-12T09:33:29.108Z,11.43
2018-06-12T09:36:03.650Z,11.67
2018-06-12T09:38:32.886Z,9.70
2018-06-12T09:41:01.870Z,11.10
2018-06-12T09:43:30.983Z,10.07
2018-06-12T09:46:00.216Z,9.53
2018-06-12T09:48:29.445Z,9.90
2018-06-12T09:50:58.748Z,9.47
2018-06-12T09:53:30.892Z,9.20
2018-06-12T09:56:00.131Z,9.17
2018-06-12T09:58:29.340Z,9.13
2018-06-12T10:01:03.748Z,10.37
2018-06-12T10:03:32.986Z,9.93
2018-06-12T10:06:02.243Z,9.90
2018-06-12T10:08:31.459Z,10.13
2018-06-12T10:11:00.711Z,12.20
2018-06-12T10:13:30.179Z,9.43
2018-06-12T10:15:59.433Z,10.30
2018-06-12T10:18:28.678Z,9.30
2018-06-12T10:20:57.925Z,8.50
2018-06-12T10:23:27.145Z,9.17
2018-06-12T10:25:56.403Z,10.30
2018-06-12T10:28:25.619Z,9.20
2018-06-12T10:30:54.855Z,10.80
2018-06-12T10:33:24.086Z,10.47
2018-06-12T10:35:53.435Z,10.60
2018-06-12T10:38:22.679Z,10.07
2018-06-12T10:40:51.943Z,11.10
2018-06-12T10:43:21.168Z,10.97
2018-06-12T10:45:50.411Z,11.63
2018-06-12T10:48:19.653Z,12.17
2018-06-12T10:50:48.886Z,10.93
2018-06-12T10:53:18.157Z,12.50
2018-06-12T10:55:47.433Z,11.83
2018-06-12T10:58:16.663Z,11.80
2018-06-12T11:00:45.952Z,11.23
2018-06-12T11:03:15.290Z,11.10
2018-06-12T11:05:44.518Z,11.17
2018-06-12T11:08:13.751Z,11.50
2018-06-12T11:10:43.049Z,10.23
2018-06-12T11:13:12.271Z,12.20
2018-06-12T11:15:41.531Z,10.87
2018-06-12T11:18:10.808Z,10.80
2018-06-12T11:20:40.089Z,14.40
2018-06-12T11:23:09.312Z,10.17
2018-06-12T11:25:38.604Z,11.23
2018-06-12T11:28:07.902Z,10.60
2018-06-12T11:30:37.300Z,10.33
2018-06-12T11:33:06.676Z,10.33
2018-06-12T11:35:35.831Z,10.47
2018-06-12T11:38:05.178Z,10.67
2018-06-12T11:40:34.420Z,9.57
2018-06-12T11:43:03.726Z,9.50
2018-06-12T11:45:33.020Z,10.20
2018-06-12T11:48:02.275Z,10.33
2018-06-12T11:50:31.499Z,10.67
2018-06-12T11:53:00.780Z,11.10
2018-06-12T11:55:30.016Z,9.87
2018-06-12T11:57:59.267Z,10.60
2018-06-12T12:00:28.526Z,10.23
2018-06-12T12:02:57.793Z,9.53
2018-06-12T12:05:27.051Z,10.03
2018-06-12T12:07:56.342Z,9.43
2018-06-12T12:10:25.590Z,9.77
2018-06-12T12:12:54.855Z,9.33
2018-06-12T12:15:24.147Z,8.77
2018-06-12T12:17:53.355Z,9.47
2018-06-12T12:20:22.578Z,9.23
2018-06-12T12:22:51.972Z,10.43
2018-06-12T12:25:21.246Z,11.53
2018-06-12T12:27:50.531Z,9.53
2018-06-12T12:30:19.855Z,8.27
2018-06-12T12:32:49.157Z,9.80
2018-06-12T12:35:18.432Z,11.53
2018-06-12T12:37:47.671Z,8.30
2018-06-12T12:40:16.907Z,7.70
2018-06-12T12:42:46.164Z,7.67
2018-06-12T12:45:15.494Z,7.33
2018-06-12T12:47:44.743Z,8.07
2018-06-12T12:50:14.027Z,8.70
2018-06-12T12:52:43.267Z,8.13
2018-06-12T12:55:12.545Z,7.87
2018-06-12T12:57:41.463Z,7.53
2018-06-12T13:00:10.637Z,8.97
2018-06-12T13:02:39.922Z,8.33
2018-06-12T13:05:09.182Z,10.27
2018-06-12T13:07:38.416Z,9.20
2018-06-12T13:10:07.671Z,8.93
2018-06-12T13:12:36.891Z,9.40
2018-06-12T13:15:06.387Z,7.93
2018-06-12T13:17:35.622Z,9.83
2018-06-12T13:20:04.532Z,11.40
2018-06-12T13:22:33.620Z,8.97
2018-06-12T13:25:02.891Z,9.00
2018-06-12T13:27:32.161Z,8.00
2018-06-12T13:30:01.361Z,8.07
2018-06-12T13:32:30.620Z,9.27
2018-06-12T13:34:59.886Z,8.40
2018-06-12T13:37:29.232Z,8.50
2018-06-12T13:39:58.536Z,8.13
2018-06-12T13:42:27.854Z,9.20
2018-06-12T13:44:57.089Z,10.47
2018-06-12T13:47:26.367Z,12.40
2018-06-12T13:50:02.181Z,11.70
2018-06-12T13:52:31.458Z,13.93
2018-06-12T13:55:00.678Z,17.70
2018-06-12T13:57:30.191Z,14.73
2018-06-12T13:59:59.438Z,15.50
2018-06-12T14:02:28.692Z,15.60
2018-06-12T14:04:57.919Z,13.40
2018-06-12T14:07:27.165Z,15.77
2018-06-12T14:09:56.428Z,14.83
2018-06-12T14:12:25.664Z,15.97
2018-06-12T14:14:54.951Z,15.50
2018-06-12T14:17:24.296Z,13.50
2018-06-12T14:19:53.617Z,14.27
2018-06-12T14:22:22.827Z,13.77
2018-06-12T14:24:51.725Z,13.03
2018-06-12T14:27:20.890Z,12.83
2018-06-12T14:29:50.112Z,13.50
2018-06-12T14:32:19.496Z,15.17
2018-06-12T14:34:48.826Z,14.50
2018-06-12T14:37:18.088Z,14.77
2018-06-12T14:39:47.380Z,14.73
2018-06-12T14:42:16.685Z,14.03
2018-06-12T14:44:45.919Z,16.87
2018-06-12T14:47:15.183Z,16.43
2018-06-12T14:49:44.587Z,15.93
2018-06-12T14:52:13.841Z,19.90
2018-06-12T14:54:43.167Z,21.60
2018-06-12T14:57:12.458Z,28.57
2018-06-12T14:59:41.749Z,26.67
2018-06-12T15:02:10.983Z,30.63
2018-06-12T15:04:40.241Z,32.53
2018-06-12T15:07:09.500Z,31.30
2018-06-12T15:09:38.743Z,29.90
2018-06-12T15:12:07.992Z,32.53
2018-06-12T15:14:36.888Z,32.80
2018-06-12T15:17:06.050Z,33.13
2018-06-12T15:19:35.383Z,34.03
2018-06-12T15:22:04.354Z,34.43
2018-06-12T15:24:33.744Z,32.23
2018-06-12T15:27:03.000Z,30.53
2018-06-12T15:29:34.866Z,31.80
2018-06-12T15:32:04.167Z,29.10
2018-06-12T15:34:33.445Z,30.47
2018-06-12T15:37:02.727Z,26.97
2018-06-12T15:39:31.631Z,25.57
2018-06-12T15:42:00.440Z,24.37
2018-06-12T15:44:29.563Z,25.50
2018-06-12T15:46:58.887Z,23.97
2018-06-12T15:49:28.175Z,23.90
2018-06-12T15:51:57.474Z,25.60
2018-06-12T15:54:26.746Z,22.63
2018-06-12T15:56:56.012Z,23.37
2018-06-12T15:59:25.263Z,22.70
2018-06-12T16:01:54.531Z,25.10
2018-06-12T16:04:23.794Z,23.97
2018-06-12T16:06:52.726Z,22.57
2018-06-12T16:09:21.824Z,23.07
2018-06-12T16:11:51.109Z,21.83
2018-06-12T16:14:20.415Z,23.20
2018-06-12T16:16:49.689Z,24.63
2018-06-12T16:19:18.927Z,23.23
2018-06-12T16:21:48.160Z,27.83
2018-06-12T16:24:17.418Z,23.47
2018-06-12T16:26:46.669Z,23.40
2018-06-12T16:29:15.907Z,28.30
2018-06-12T16:31:45.151Z,22.90
2018-06-12T16:34:14.399Z,22.03
2018-06-12T16:36:43.684Z,24.70
2018-06-12T16:39:12.961Z,24.80
2018-06-12T16:41:42.231Z,24.17
2018-06-12T16:44:11.523Z,24.50
2018-06-12T16:46:40.767Z,23.93
2018-06-12T16:49:10.078Z,25.00
2018-06-12T16:51:39.328Z,22.50
2018-06-12T16:54:08.693Z,24.20
2018-06-12T16:56:38.050Z,20.03
2018-06-12T16:59:07.314Z,20.90
2018-06-12T17:01:36.624Z,20.57
2018-06-12T17:04:06.068Z,19.77
2018-06-12T17:06:35.343Z,21.70
2018-06-12T17:09:06.912Z,21.67
2018-06-12T17:11:36.195Z,22.17
2018-06-12T17:14:06.440Z,22.20
2018-06-12T17:16:35.694Z,21.87
2018-06-12T17:19:05.084Z,21.53
2018-06-12T17:21:34.472Z,23.10
2018-06-12T17:24:03.770Z,20.73
2018-06-12T17:26:33.153Z,22.03
2018-06-12T17:29:02.609Z,20.00
2018-06-12T17:31:32.271Z,24.17
2018-06-12T17:34:01.531Z,18.83
2018-06-12T17:36:30.844Z,20.70
2018-06-12T17:39:00.116Z,19.53
2018-06-12T17:41:29.471Z,20.00
2018-06-12T17:43:58.822Z,18.57
2018-06-12T17:46:28.083Z,18.07
2018-06-12T17:48:57.423Z,23.67
2018-06-12T17:51:26.806Z,19.27
2018-06-12T17:53:56.045Z,22.13
2018-06-12T17:56:25.318Z,19.90
2018-06-12T17:58:54.559Z,19.47
2018-06-12T18:01:23.928Z,18.90
2018-06-12T18:03:52.863Z,19.57
2018-06-12T18:06:22.128Z,16.03
2018-06-12T18:08:51.070Z,18.27
2018-06-12T18:11:20.218Z,15.70
2018-06-12T18:13:49.611Z,17.00
2018-06-12T18:16:18.947Z,15.27
2018-06-12T18:18:48.300Z,14.83
2018-06-12T18:21:17.619Z,15.63
2018-06-12T18:23:52.454Z,16.63
2018-06-12T18:26:21.969Z,16.97
2018-06-12T18:28:51.275Z,16.13
2018-06-12T18:31:20.728Z,14.53
2018-06-12T18:33:50.097Z,17.67
2018-06-12T18:36:19.482Z,14.93
2018-06-12T18:38:48.838Z,17.87
2018-06-12T18:41:18.191Z,17.70
2018-06-12T18:43:47.585Z,14.33
2018-06-12T18:46:16.892Z,12.87
2018-06-12T18:48:46.281Z,16.07
2018-06-12T18:51:15.651Z,18.13
2018-06-12T18:53:44.976Z,15.07
2018-06-12T18:56:14.348Z,15.53
2018-06-12T18:58:43.753Z,14.40
2018-06-12T19:01:12.979Z,19.07
2018-06-12T19:03:42.915Z,16.40
2018-06-12T19:06:12.239Z,16.80
2018-06-12T19:08:41.555Z,15.00
2018-06-12T19:11:10.904Z,16.37
2018-06-12T19:13:40.233Z,20.30
2018-06-12T19:16:09.473Z,20.83
2018-06-12T19:18:38.819Z,21.97
2018-06-12T19:21:08.134Z,18.47
2018-06-12T19:23:37.474Z,18.00
2018-06-12T19:26:06.892Z,18.63
2018-06-12T19:28:36.212Z,19.33
2018-06-12T19:31:05.589Z,18.13
2018-06-12T19:33:35.609Z,14.57
2018-06-12T19:36:05.072Z,18.67
2018-06-12T19:38:34.420Z,15.87
2018-06-12T19:41:03.782Z,18.27
2018-06-12T19:43:33.119Z,16.80
2018-06-12T19:46:02.450Z,16.20
2018-06-12T19:48:31.845Z,16.63
2018-06-12T19:51:01.204Z,16.33
2018-06-12T19:53:30.539Z,15.47
2018-06-12T19:55:59.865Z,16.47
2018-06-12T19:58:29.215Z,15.63
2018-06-12T20:00:58.529Z,15.17
2018-06-12T20:03:27.827Z,19.00
2018-06-12T20:05:57.176Z,15.10
2018-06-12T20:08:26.528Z,14.57
2018-06-12T20:10:55.942Z,15.93
2018-06-12T20:13:25.375Z,14.00
2018-06-12T20:15:54.612Z,15.07
2018-06-12T20:18:23.878Z,15.30
2018-06-12T20:20:53.215Z,18.77
2018-06-12T20:23:22.615Z,19.27
2018-06-12T20:25:51.947Z,22.90
2018-06-12T20:28:21.337Z,22.60
2018-06-12T20:30:50.787Z,22.87
2018-06-12T20:33:21.614Z,22.50
2018-06-12T20:35:50.923Z,21.93
2018-06-12T20:38:20.233Z,24.37
2018-06-12T20:40:49.708Z,23.77
2018-06-12T20:43:19.083Z,24.37
2018-06-12T20:45:48.332Z,24.63
2018-06-12T20:48:17.611Z,24.43
2018-06-12T20:50:47.003Z,24.73
2018-06-12T20:53:16.277Z,25.67
2018-06-12T20:55:45.818Z,24.37
2018-06-12T20:58:15.131Z,24.63
2018-06-12T21:00:44.420Z,25.17
2018-06-12T21:03:13.715Z,24.90
2018-06-12T21:05:43.178Z,24.47
2018-06-12T21:08:13.276Z,25.00
2018-06-12T21:10:42.564Z,24.93
2018-06-12T21:13:11.849Z,31.13
2018-06-12T21:15:41.230Z,26.17
2018-06-12T21:18:10.530Z,25.20
2018-06-12T21:20:40.127Z,26.33
2018-06-12T21:23:09.497Z,25.10
2018-06-12T21:25:38.864Z,29.43
2018-06-12T21:28:08.199Z,26.93
2018-06-12T21:30:37.560Z,29.30
2018-06-12T21:33:06.831Z,27.77
2018-06-12T21:35:36.187Z,28.90
2018-06-12T21:38:06.354Z,27.87
2018-06-12T21:40:35.653Z,28.73
2018-06-12T21:43:05.021Z,28.50
2018-06-12T21:45:34.294Z,28.63
2018-06-12T21:48:03.592Z,29.60
2018-06-12T21:50:32.858Z,29.77
2018-06-12T21:53:02.155Z,28.03
2018-06-12T21:55:31.432Z,29.97
2018-06-12T21:58:00.700Z,28.50
2018-06-12T22:00:32.999Z,30.23
2018-06-12T22:03:02.418Z,35.67
2018-06-12T22:05:31.671Z,28.90
2018-06-12T22:08:00.915Z,27.17
2018-06-12T22:10:30.207Z,28.00
2018-06-12T22:12:59.680Z,23.87
2018-06-12T22:15:28.921Z,21.33
2018-06-12T22:17:58.167Z,20.93
2018-06-12T22:20:27.432Z,19.03
2018-06-12T22:22:56.655Z,19.83
2018-06-12T22:25:25.880Z,19.27
2018-06-12T22:27:55.151Z,20.90
2018-06-12T22:30:24.423Z,20.47
2018-06-12T22:32:53.660Z,21.77
2018-06-12T22:35:22.911Z,20.40
2018-06-12T22:37:52.295Z,19.10
2018-06-12T22:40:21.475Z,20.57
2018-06-12T22:42:50.708Z,19.87
2018-06-12T22:45:19.948Z,19.90
2018-06-12T22:47:49.228Z,22.80
2018-06-12T22:50:18.455Z,22.00
2018-06-12T22:52:47.687Z,22.13
2018-06-12T22:55:16.931Z,23.23
2018-06-12T22:57:46.231Z,21.80
2018-06-12T23:00:19.935Z,22.33
2018-06-12T23:02:48.850Z,21.63
2018-06-12T23:05:17.978Z,21.13
2018-06-12T23:07:47.230Z,20.57
2018-06-12T23:10:16.484Z,22.03
2018-06-12T23:12:45.679Z,24.03
2018-06-12T23:15:14.979Z,22.50
2018-06-12T23:17:44.172Z,21.20
2018-06-12T23:20:24.794Z,23.17
2018-06-12T23:22:54.047Z,24.73
2018-06-12T23:25:23.368Z,21.13
2018-06-12T23:27:52.627Z,27.17
2018-06-12T23:30:21.858Z,21.13
2018-06-12T23:32:50.745Z,21.30
2018-06-12T23:35:19.937Z,19.93
2018-06-12T23:37:49.177Z,22.47
2018-06-12T23:40:18.371Z,19.30
2018-06-12T23:42:47.561Z,19.13
2018-06-12T23:45:16.807Z,17.57
2018-06-12T23:47:46.003Z,18.13
2018-06-12T23:50:15.275Z,17.27
2018-06-12T23:52:44.514Z,17.33
2018-06-12T23:55:13.739Z,16.23
2018-06-12T23:57:43.020Z,17.30
